Time;durP1;ratioP1;P1;durP2;ratioP2;P2;SDS_P1;SDS_P2;PMS_P1;PMS_P2;Temp;Humidity;BMP_temperature;BMP_pressure;BME280_temperature;BME280_humidity;BME280_pressure;Samples;Min_cycle;Max_cycle;Signal;HPM_P1;HPM_P2
2022/10/08 00:00:00;;;;;;;0.6;0.6;;;;;;;13.5;100.0;101370;;;;
2022/10/08 00:01:01;;;;;;;0.6;0.6;;;;;;;13.5;100.0;101370;;;;
2022/10/08 00:02:00;;;;;;;0.6;0.6;;;;;;;13.5;100.0;101370;;;;
2022/10/08 00:03:00;;;;;;;0.6;0.6;;;;;;;13.5;100.0;101370;;;;
2022/10/08 00:04:00;;;;;;;0.5;0.5;;;;;;;13.4;100.0;101370;;;;
2022/10/08 00:05:00;;;;;;;0.5;0.5;;;;;;;13.4;100.0;101370;;;;
2022/10/08 00:06:05;;;;;;;0.5;0.5;;;;;;;13.4;100.0;101370;;;;
2022/10/08 00:07:00;;;;;;;0.5;0.5;;;;;;;13.4;100.0;101370;;;;
2022/10/08 00:08:01;;;;;;;0.5;0.5;;;;;;;13.3;100.0;101370;;;;
2022/10/08 00:09:04;;;;;;;0.5;0.5;;;;;;;13.3;100.0;101370;;;;
2022/10/08 00:10:00;;;;;;;0.5;0.5;;;;;;;13.4;100.0;101370;;;;
2022/10/08 00:11:02;;;;;;;0.5;0.5;;;;;;;13.4;100.0;101370;;;;
2022/10/08 00:12:00;;;;;;;0.5;0.5;;;;;;;13.4;100.0;101370;;;;
2022/10/08 00:13:00;;;;;;;0.5;0.5;;;;;;;13.4;100.0;101370;;;;
2022/10/08 00:14:00;;;;;;;0.5;0.5;;;;;;;13.3;100.0;101370;;;;
2022/10/08 00:15:00;;;;;;;0.5;0.5;;;;;;;13.3;100.0;101370;;;;
2022/10/08 00:16:00;;;;;;;0.5;0.5;;;;;;;13.3;100.0;101370;;;;
2022/10/08 00:17:00;;;;;;;0.5;0.5;;;;;;;13.3;100.0;101370;;;;
2022/10/08 00:18:00;;;;;;;0.5;0.5;;;;;;;13.4;100.0;101370;;;;
2022/10/08 00:19:02;;;;;;;0.5;0.5;;;;;;;13.4;100.0;101370;;;;
2022/10/08 00:20:00;;;;;;;0.5;0.5;;;;;;;13.3;100.0;101370;;;;
2022/10/08 00:21:05;;;;;;;0.5;0.5;;;;;;;13.3;100.0;101370;;;;
2022/10/08 00:22:00;;;;;;;0.5;0.5;;;;;;;13.3;100.0;101370;;;;
2022/10/08 00:23:00;;;;;;;0.5;0.5;;;;;;;13.3;100.0;101370;;;;
2022/10/08 00:24:01;;;;;;;0.5;0.5;;;;;;;13.4;100.0;101370;;;;
2022/10/08 00:25:00;;;;;;;0.5;0.5;;;;;;;13.4;100.0;101370;;;;
2022/10/08 00:26:02;;;;;;;0.5;0.5;;;;;;;13.5;100.0;101370;;;;
2022/10/08 00:27:00;;;;;;;0.5;0.5;;;;;;;13.5;100.0;101370;;;;
2022/10/08 00:28:00;;;;;;;0.5;0.5;;;;;;;13.4;100.0;101370;;;;
2022/10/08 00:29:02;;;;;;;0.5;0.5;;;;;;;13.4;100.0;101370;;;;
2022/10/08 00:30:00;;;;;;;0.5;0.5;;;;;;;13.4;100.0;101370;;;;
2022/10/08 00:31:08;;;;;;;0.5;0.5;;;;;;;13.4;100.0;101370;;;;
2022/10/08 00:32:01;;;;;;;0.5;0.5;;;;;;;13.4;100.0;101370;;;;
2022/10/08 00:33:01;;;;;;;0.5;0.5;;;;;;;13.4;100.0;101370;;;;
2022/10/08 00:34:02;;;;;;;0.5;0.5;;;;;;;13.4;100.0;101370;;;;
2022/10/08 00:35:00;;;;;;;0.5;0.5;;;;;;;13.4;100.0;101370;;;;
2022/10/08 00:36:00;;;;;;;0.5;0.5;;;;;;;13.4;100.0;101370;;;;
2022/10/08 00:37:00;;;;;;;0.5;0.5;;;;;;;13.4;100.0;101370;;;;
2022/10/08 00:38:00;;;;;;;0.5;0.5;;;;;;;13.5;100.0;101370;;;;
2022/10/08 00:39:02;;;;;;;0.5;0.5;;;;;;;13.5;100.0;101370;;;;
2022/10/08 00:40:00;;;;;;;0.5;0.5;;;;;;;13.4;100.0;101370;;;;
2022/10/08 00:41:00;;;;;;;0.5;0.5;;;;;;;13.4;100.0;101370;;;;
2022/10/08 00:42:01;;;;;;;0.5;0.5;;;;;;;13.4;100.0;101370;;;;
2022/10/08 00:43:00;;;;;;;0.5;0.5;;;;;;;13.4;100.0;101370;;;;
2022/10/08 00:44:02;;;;;;;1.2;1.2;;;;;;;13.5;100.0;101370;;;;
2022/10/08 00:45:00;;;;;;;1.2;1.2;;;;;;;13.5;100.0;101370;;;;
2022/10/08 00:46:00;;;;;;;1.2;1.2;;;;;;;13.5;100.0;101370;;;;
2022/10/08 00:47:00;;;;;;;1.2;1.2;;;;;;;13.5;100.0;101370;;;;
2022/10/08 00:48:00;;;;;;;1.2;1.2;;;;;;;13.5;100.0;101370;;;;
2022/10/08 00:49:02;;;;;;;1.2;1.2;;;;;;;13.5;100.0;101370;;;;
2022/10/08 00:50:10;;;;;;;1.2;1.2;;;;;;;13.6;100.0;101380;;;;
2022/10/08 00:51:01;;;;;;;1.2;1.2;;;;;;;13.6;100.0;101380;;;;
2022/10/08 00:52:00;;;;;;;1.2;1.2;;;;;;;13.6;100.0;101380;;;;
2022/10/08 00:53:04;;;;;;;1.2;1.2;;;;;;;13.6;100.0;101380;;;;
2022/10/08 00:54:01;;;;;;;1.2;1.2;;;;;;;13.5;100.0;101380;;;;
2022/10/08 00:55:05;;;;;;;1.2;1.2;;;;;;;13.5;100.0;101380;;;;
2022/10/08 00:56:01;;;;;;;1.2;1.2;;;;;;;13.5;100.0;101380;;;;
2022/10/08 00:57:00;;;;;;;1.2;1.2;;;;;;;13.5;100.0;101380;;;;
2022/10/08 00:58:10;;;;;;;1.2;1.2;;;;;;;13.6;100.0;101380;;;;
2022/10/08 00:59:01;;;;;;;1.2;1.2;;;;;;;13.6;100.0;101380;;;;
2022/10/08 01:00:03;;;;;;;1.2;1.2;;;;;;;13.6;100.0;101380;;;;
2022/10/08 01:01:01;;;;;;;1.2;1.2;;;;;;;13.6;100.0;101380;;;;
2022/10/08 01:02:00;;;;;;;1.2;1.2;;;;;;;13.7;100.0;101380;;;;
2022/10/08 01:03:02;;;;;;;1.2;1.2;;;;;;;13.7;100.0;101380;;;;
2022/10/08 01:04:03;;;;;;;0.6;0.6;;;;;;;13.7;100.0;101380;;;;
2022/10/08 01:05:01;;;;;;;0.6;0.6;;;;;;;13.7;100.0;101380;;;;
2022/10/08 01:06:10;;;;;;;0.6;0.6;;;;;;;13.6;100.0;101380;;;;
2022/10/08 01:07:07;;;;;;;0.6;0.6;;;;;;;13.6;100.0;101380;;;;
2022/10/08 01:08:10;;;;;;;0.6;0.6;;;;;;;13.6;100.0;101380;;;;
2022/10/08 01:09:11;;;;;;;0.6;0.6;;;;;;;13.6;100.0;101380;;;;
2022/10/08 01:10:05;;;;;;;0.6;0.6;;;;;;;13.8;100.0;101380;;;;
2022/10/08 01:11:00;;;;;;;0.6;0.6;;;;;;;13.8;100.0;101380;;;;
2022/10/08 01:12:10;;;;;;;0.6;0.6;;;;;;;13.8;100.0;101380;;;;
2022/10/08 01:13:10;;;;;;;0.6;0.6;;;;;;;13.8;100.0;101380;;;;
2022/10/08 01:14:04;;;;;;;0.6;0.6;;;;;;;13.7;100.0;101380;;;;
2022/10/08 01:15:07;;;;;;;0.6;0.6;;;;;;;13.7;100.0;101380;;;;
2022/10/08 01:16:09;;;;;;;0.6;0.6;;;;;;;13.7;100.0;101380;;;;
2022/10/08 01:17:00;;;;;;;0.6;0.6;;;;;;;13.7;100.0;101380;;;;
2022/10/08 01:18:00;;;;;;;0.6;0.6;;;;;;;13.8;100.0;101390;;;;
2022/10/08 01:19:10;;;;;;;0.6;0.6;;;;;;;13.8;100.0;101390;;;;
2022/10/08 01:20:10;;;;;;;0.6;0.6;;;;;;;13.7;100.0;101380;;;;
2022/10/08 01:21:08;;;;;;;0.6;0.6;;;;;;;13.7;100.0;101380;;;;
2022/10/08 01:22:10;;;;;;;0.6;0.6;;;;;;;13.7;100.0;101390;;;;
2022/10/08 01:23:10;;;;;;;0.6;0.6;;;;;;;13.7;100.0;101390;;;;
2022/10/08 01:24:10;;;;;;;0.5;0.5;;;;;;;13.7;100.0;101390;;;;
2022/10/08 01:26:07;;;;;;;0.5;0.5;;;;;;;13.7;100.0;101380;;;;
2022/10/08 01:27:03;;;;;;;0.5;0.5;;;;;;;13.7;100.0;101380;;;;
2022/10/08 01:28:08;;;;;;;0.5;0.5;;;;;;;13.8;100.0;101380;;;;
2022/10/08 01:29:00;;;;;;;0.5;0.5;;;;;;;13.8;100.0;101380;;;;
2022/10/08 01:30:04;;;;;;;0.5;0.5;;;;;;;13.7;100.0;101390;;;;
2022/10/08 01:31:04;;;;;;;0.5;0.5;;;;;;;13.7;100.0;101390;;;;
2022/10/08 01:32:03;;;;;;;0.5;0.5;;;;;;;13.6;100.0;101380;;;;
2022/10/08 01:33:05;;;;;;;0.5;0.5;;;;;;;13.6;100.0;101380;;;;
2022/10/08 01:34:07;;;;;;;0.5;0.5;;;;;;;13.6;100.0;101390;;;;
2022/10/08 01:35:02;;;;;;;0.5;0.5;;;;;;;13.6;100.0;101390;;;;
2022/10/08 01:36:04;;;;;;;0.5;0.5;;;;;;;13.6;100.0;101400;;;;
2022/10/08 01:37:01;;;;;;;0.5;0.5;;;;;;;13.6;100.0;101400;;;;
2022/10/08 01:38:03;;;;;;;0.5;0.5;;;;;;;13.6;100.0;101400;;;;
2022/10/08 01:39:03;;;;;;;0.5;0.5;;;;;;;13.6;100.0;101400;;;;
2022/10/08 01:40:01;;;;;;;0.5;0.5;;;;;;;13.6;100.0;101400;;;;
2022/10/08 01:41:04;;;;;;;0.5;0.5;;;;;;;13.6;100.0;101400;;;;
2022/10/08 01:42:02;;;;;;;0.5;0.5;;;;;;;13.5;100.0;101400;;;;
2022/10/08 01:43:03;;;;;;;0.5;0.5;;;;;;;13.5;100.0;101400;;;;
2022/10/08 01:44:04;;;;;;;0.5;0.5;;;;;;;13.4;100.0;101400;;;;
2022/10/08 01:45:02;;;;;;;0.5;0.5;;;;;;;13.4;100.0;101400;;;;
2022/10/08 01:46:04;;;;;;;0.5;0.5;;;;;;;13.4;100.0;101390;;;;
2022/10/08 01:47:03;;;;;;;0.5;0.5;;;;;;;13.4;100.0;101390;;;;
2022/10/08 01:48:04;;;;;;;0.5;0.5;;;;;;;13.4;100.0;101390;;;;
2022/10/08 01:49:04;;;;;;;0.5;0.5;;;;;;;13.4;100.0;101390;;;;
2022/10/08 01:50:04;;;;;;;0.5;0.5;;;;;;;13.3;100.0;101390;;;;
2022/10/08 01:51:07;;;;;;;0.5;0.5;;;;;;;13.3;100.0;101390;;;;
2022/10/08 01:52:06;;;;;;;0.5;0.5;;;;;;;13.3;100.0;101400;;;;
2022/10/08 01:53:03;;;;;;;0.5;0.5;;;;;;;13.3;100.0;101400;;;;
2022/10/08 01:54:03;;;;;;;0.5;0.5;;;;;;;13.3;100.0;101390;;;;
2022/10/08 01:55:03;;;;;;;0.5;0.5;;;;;;;13.3;100.0;101390;;;;
2022/10/08 01:56:01;;;;;;;0.5;0.5;;;;;;;13.3;100.0;101390;;;;
2022/10/08 01:57:03;;;;;;;0.5;0.5;;;;;;;13.3;100.0;101390;;;;
2022/10/08 01:58:03;;;;;;;0.5;0.5;;;;;;;13.2;100.0;101390;;;;
2022/10/08 01:59:01;;;;;;;0.5;0.5;;;;;;;13.2;100.0;101390;;;;
2022/10/08 02:00:06;;;;;;;0.5;0.5;;;;;;;13.3;100.0;101380;;;;
2022/10/08 02:01:10;;;;;;;0.5;0.5;;;;;;;13.3;100.0;101380;;;;
2022/10/08 02:02:02;;;;;;;0.5;0.5;;;;;;;13.3;100.0;101390;;;;
2022/10/08 02:03:00;;;;;;;0.5;0.5;;;;;;;13.3;100.0;101390;;;;
2022/10/08 02:05:00;;;;;;;0.6;0.6;;;;;;;13.2;100.0;101390;;;;
2022/10/08 02:06:02;;;;;;;0.6;0.6;;;;;;;13.3;100.0;101390;;;;
2022/10/08 02:07:09;;;;;;;0.6;0.6;;;;;;;13.3;100.0;101390;;;;
2022/10/08 02:08:00;;;;;;;0.6;0.6;;;;;;;13.2;100.0;101400;;;;
2022/10/08 02:09:01;;;;;;;0.6;0.6;;;;;;;13.2;100.0;101400;;;;
2022/10/08 02:10:03;;;;;;;0.6;0.6;;;;;;;13.2;100.0;101410;;;;
2022/10/08 02:11:00;;;;;;;0.6;0.6;;;;;;;13.2;100.0;101410;;;;
2022/10/08 02:12:01;;;;;;;0.6;0.6;;;;;;;13.2;100.0;101410;;;;
2022/10/08 02:13:00;;;;;;;0.6;0.6;;;;;;;13.2;100.0;101410;;;;
2022/10/08 02:14:00;;;;;;;0.6;0.6;;;;;;;13.2;100.0;101400;;;;
2022/10/08 02:15:01;;;;;;;0.6;0.6;;;;;;;13.2;100.0;101400;;;;
2022/10/08 02:16:05;;;;;;;0.6;0.6;;;;;;;13.2;100.0;101400;;;;
2022/10/08 02:17:05;;;;;;;0.6;0.6;;;;;;;13.2;100.0;101400;;;;
2022/10/08 02:18:08;;;;;;;0.6;0.6;;;;;;;13.1;100.0;101410;;;;
2022/10/08 02:19:07;;;;;;;0.6;0.6;;;;;;;13.1;100.0;101410;;;;
2022/10/08 02:20:04;;;;;;;0.6;0.6;;;;;;;13.1;100.0;101400;;;;
2022/10/08 02:21:02;;;;;;;0.6;0.6;;;;;;;13.1;100.0;101400;;;;
2022/10/08 02:22:01;;;;;;;0.6;0.6;;;;;;;13.1;100.0;101410;;;;
2022/10/08 02:23:04;;;;;;;0.6;0.6;;;;;;;13.1;100.0;101410;;;;
2022/10/08 02:24:08;;;;;;;0.5;0.5;;;;;;;13.1;100.0;101410;;;;
2022/10/08 02:25:10;;;;;;;0.5;0.5;;;;;;;13.1;100.0;101410;;;;
2022/10/08 02:26:01;;;;;;;0.5;0.5;;;;;;;13.1;100.0;101410;;;;
2022/10/08 02:27:02;;;;;;;0.5;0.5;;;;;;;13.1;100.0;101410;;;;
2022/10/08 02:28:00;;;;;;;0.5;0.5;;;;;;;13.1;100.0;101410;;;;
2022/10/08 02:29:04;;;;;;;0.5;0.5;;;;;;;13.1;100.0;101410;;;;
2022/10/08 02:30:09;;;;;;;0.5;0.5;;;;;;;13.1;100.0;101420;;;;
2022/10/08 02:31:10;;;;;;;0.5;0.5;;;;;;;13.1;100.0;101420;;;;
2022/10/08 02:32:10;;;;;;;0.5;0.5;;;;;;;13.0;100.0;101410;;;;
2022/10/08 02:33:04;;;;;;;0.5;0.5;;;;;;;13.0;100.0;101410;;;;
2022/10/08 02:34:05;;;;;;;0.5;0.5;;;;;;;13.0;100.0;101410;;;;
2022/10/08 02:35:06;;;;;;;0.5;0.5;;;;;;;13.0;100.0;101410;;;;
2022/10/08 02:36:03;;;;;;;0.5;0.5;;;;;;;13.1;100.0;101420;;;;
2022/10/08 02:37:07;;;;;;;0.5;0.5;;;;;;;13.1;100.0;101420;;;;
2022/10/08 02:38:04;;;;;;;0.5;0.5;;;;;;;13.2;100.0;101410;;;;
2022/10/08 02:39:02;;;;;;;0.5;0.5;;;;;;;13.2;100.0;101410;;;;
2022/10/08 02:40:03;;;;;;;0.5;0.5;;;;;;;13.1;100.0;101410;;;;
2022/10/08 02:41:02;;;;;;;0.5;0.5;;;;;;;13.1;100.0;101410;;;;
2022/10/08 02:42:02;;;;;;;0.5;0.5;;;;;;;13.0;100.0;101410;;;;
2022/10/08 02:43:04;;;;;;;0.5;0.5;;;;;;;13.0;100.0;101410;;;;
2022/10/08 02:44:04;;;;;;;0.6;0.6;;;;;;;13.1;100.0;101410;;;;
2022/10/08 02:45:06;;;;;;;0.6;0.6;;;;;;;13.1;100.0;101410;;;;
2022/10/08 02:46:04;;;;;;;0.6;0.6;;;;;;;13.0;100.0;101410;;;;
2022/10/08 02:47:03;;;;;;;0.6;0.6;;;;;;;13.0;100.0;101410;;;;
2022/10/08 02:48:04;;;;;;;0.6;0.6;;;;;;;13.0;100.0;101410;;;;
2022/10/08 02:49:04;;;;;;;0.6;0.6;;;;;;;13.0;100.0;101410;;;;
2022/10/08 02:50:02;;;;;;;0.6;0.6;;;;;;;13.0;100.0;101410;;;;
2022/10/08 02:51:04;;;;;;;0.6;0.6;;;;;;;13.0;100.0;101410;;;;
2022/10/08 02:52:01;;;;;;;0.6;0.6;;;;;;;13.0;100.0;101400;;;;
2022/10/08 02:53:00;;;;;;;0.6;0.6;;;;;;;13.0;100.0;101400;;;;
2022/10/08 02:54:03;;;;;;;0.6;0.6;;;;;;;12.9;100.0;101410;;;;
2022/10/08 02:55:01;;;;;;;0.6;0.6;;;;;;;12.9;100.0;101410;;;;
2022/10/08 02:56:00;;;;;;;0.6;0.6;;;;;;;13.0;100.0;101410;;;;
2022/10/08 02:57:09;;;;;;;0.6;0.6;;;;;;;13.0;100.0;101410;;;;
2022/10/08 02:58:02;;;;;;;0.6;0.6;;;;;;;13.0;100.0;101410;;;;
2022/10/08 02:59:00;;;;;;;0.6;0.6;;;;;;;13.0;100.0;101410;;;;
2022/10/08 03:00:00;;;;;;;0.6;0.6;;;;;;;12.9;100.0;101410;;;;
2022/10/08 03:01:07;;;;;;;0.6;0.6;;;;;;;12.9;100.0;101410;;;;
2022/10/08 03:02:02;;;;;;;0.6;0.6;;;;;;;12.9;100.0;101410;;;;
2022/10/08 03:03:05;;;;;;;0.6;0.6;;;;;;;12.9;100.0;101410;;;;
2022/10/08 03:04:07;;;;;;;0.5;0.5;;;;;;;12.9;100.0;101410;;;;
2022/10/08 03:05:03;;;;;;;0.5;0.5;;;;;;;12.9;100.0;101410;;;;
2022/10/08 03:06:02;;;;;;;0.5;0.5;;;;;;;12.9;100.0;101410;;;;
2022/10/08 03:07:00;;;;;;;0.5;0.5;;;;;;;12.9;100.0;101410;;;;
2022/10/08 03:08:00;;;;;;;0.5;0.5;;;;;;;12.9;100.0;101410;;;;
2022/10/08 03:09:01;;;;;;;0.5;0.5;;;;;;;12.9;100.0;101410;;;;
2022/10/08 03:10:04;;;;;;;0.5;0.5;;;;;;;12.8;100.0;101410;;;;
2022/10/08 03:11:00;;;;;;;0.5;0.5;;;;;;;12.8;100.0;101410;;;;
2022/10/08 03:12:00;;;;;;;0.5;0.5;;;;;;;12.8;100.0;101410;;;;
2022/10/08 03:13:00;;;;;;;0.5;0.5;;;;;;;12.8;100.0;101410;;;;
2022/10/08 03:14:03;;;;;;;0.5;0.5;;;;;;;12.8;100.0;101410;;;;
2022/10/08 03:15:01;;;;;;;0.5;0.5;;;;;;;12.8;100.0;101410;;;;
2022/10/08 03:16:01;;;;;;;0.5;0.5;;;;;;;12.7;100.0;101410;;;;
2022/10/08 03:17:00;;;;;;;0.5;0.5;;;;;;;12.7;100.0;101410;;;;
2022/10/08 03:18:01;;;;;;;0.5;0.5;;;;;;;12.7;100.0;101410;;;;
2022/10/08 03:19:01;;;;;;;0.5;0.5;;;;;;;12.7;100.0;101410;;;;
2022/10/08 03:20:02;;;;;;;0.5;0.5;;;;;;;12.8;100.0;101420;;;;
2022/10/08 03:21:00;;;;;;;0.5;0.5;;;;;;;12.8;100.0;101420;;;;
2022/10/08 03:22:01;;;;;;;0.5;0.5;;;;;;;12.8;100.0;101420;;;;
2022/10/08 03:23:00;;;;;;;0.5;0.5;;;;;;;12.8;100.0;101420;;;;
2022/10/08 03:24:00;;;;;;;0.8;0.8;;;;;;;12.7;100.0;101430;;;;
2022/10/08 03:25:00;;;;;;;0.8;0.8;;;;;;;12.7;100.0;101430;;;;
2022/10/08 03:26:00;;;;;;;0.8;0.8;;;;;;;12.7;100.0;101420;;;;
2022/10/08 03:27:00;;;;;;;0.8;0.8;;;;;;;12.7;100.0;101420;;;;
2022/10/08 03:28:00;;;;;;;0.8;0.8;;;;;;;12.7;100.0;101420;;;;
2022/10/08 03:29:00;;;;;;;0.8;0.8;;;;;;;12.7;100.0;101420;;;;
2022/10/08 03:30:01;;;;;;;0.8;0.8;;;;;;;12.7;100.0;101420;;;;
2022/10/08 03:31:04;;;;;;;0.8;0.8;;;;;;;12.7;100.0;101420;;;;
2022/10/08 03:32:00;;;;;;;0.8;0.8;;;;;;;12.7;100.0;101420;;;;
2022/10/08 03:33:00;;;;;;;0.8;0.8;;;;;;;12.7;100.0;101420;;;;
2022/10/08 03:34:00;;;;;;;0.8;0.8;;;;;;;12.6;100.0;101430;;;;
2022/10/08 03:35:00;;;;;;;0.8;0.8;;;;;;;12.6;100.0;101430;;;;
2022/10/08 03:36:00;;;;;;;0.8;0.8;;;;;;;12.6;100.0;101430;;;;
2022/10/08 03:37:00;;;;;;;0.8;0.8;;;;;;;12.6;100.0;101430;;;;
2022/10/08 03:38:00;;;;;;;0.8;0.8;;;;;;;12.6;100.0;101440;;;;
2022/10/08 03:39:00;;;;;;;0.8;0.8;;;;;;;12.6;100.0;101440;;;;
2022/10/08 03:40:00;;;;;;;0.8;0.8;;;;;;;12.6;100.0;101440;;;;
2022/10/08 03:41:00;;;;;;;0.8;0.8;;;;;;;12.6;100.0;101440;;;;
2022/10/08 03:42:00;;;;;;;0.8;0.8;;;;;;;12.6;100.0;101440;;;;
2022/10/08 03:43:00;;;;;;;0.8;0.8;;;;;;;12.6;100.0;101440;;;;
2022/10/08 03:44:00;;;;;;;0.6;0.6;;;;;;;12.7;100.0;101440;;;;
2022/10/08 03:45:01;;;;;;;0.6;0.6;;;;;;;12.7;100.0;101440;;;;
2022/10/08 03:46:01;;;;;;;0.6;0.6;;;;;;;12.6;100.0;101440;;;;
2022/10/08 03:47:00;;;;;;;0.6;0.6;;;;;;;12.6;100.0;101440;;;;
2022/10/08 03:48:00;;;;;;;0.6;0.6;;;;;;;12.6;100.0;101440;;;;
2022/10/08 03:49:00;;;;;;;0.6;0.6;;;;;;;12.6;100.0;101440;;;;
2022/10/08 03:50:00;;;;;;;0.6;0.6;;;;;;;12.6;100.0;101440;;;;
2022/10/08 03:51:02;;;;;;;0.6;0.6;;;;;;;12.6;100.0;101440;;;;
2022/10/08 03:52:00;;;;;;;0.6;0.6;;;;;;;12.5;100.0;101440;;;;
2022/10/08 03:53:00;;;;;;;0.6;0.6;;;;;;;12.5;100.0;101440;;;;
2022/10/08 03:54:00;;;;;;;0.6;0.6;;;;;;;12.5;100.0;101440;;;;
2022/10/08 03:55:00;;;;;;;0.6;0.6;;;;;;;12.5;100.0;101440;;;;
2022/10/08 03:56:01;;;;;;;0.6;0.6;;;;;;;12.4;100.0;101440;;;;
2022/10/08 03:57:00;;;;;;;0.6;0.6;;;;;;;12.4;100.0;101440;;;;
2022/10/08 03:58:00;;;;;;;0.6;0.6;;;;;;;12.4;100.0;101440;;;;
2022/10/08 03:59:00;;;;;;;0.6;0.6;;;;;;;12.4;100.0;101440;;;;
2022/10/08 04:00:00;;;;;;;0.6;0.6;;;;;;;12.4;100.0;101450;;;;
2022/10/08 04:01:01;;;;;;;0.6;0.6;;;;;;;12.4;100.0;101450;;;;
2022/10/08 04:02:00;;;;;;;0.6;0.6;;;;;;;12.3;100.0;101450;;;;
2022/10/08 04:03:00;;;;;;;0.6;0.6;;;;;;;12.3;100.0;101450;;;;
2022/10/08 04:04:00;;;;;;;0.5;0.5;;;;;;;12.3;100.0;101450;;;;
2022/10/08 04:05:00;;;;;;;0.5;0.5;;;;;;;12.3;100.0;101450;;;;
2022/10/08 04:06:00;;;;;;;0.5;0.5;;;;;;;12.3;100.0;101450;;;;
2022/10/08 04:07:00;;;;;;;0.5;0.5;;;;;;;12.3;100.0;101450;;;;
2022/10/08 04:08:00;;;;;;;0.5;0.5;;;;;;;12.2;100.0;101460;;;;
2022/10/08 04:09:00;;;;;;;0.5;0.5;;;;;;;12.2;100.0;101460;;;;
2022/10/08 04:10:00;;;;;;;0.5;0.5;;;;;;;12.2;100.0;101450;;;;
2022/10/08 04:11:02;;;;;;;0.5;0.5;;;;;;;12.2;100.0;101450;;;;
2022/10/08 04:12:00;;;;;;;0.5;0.5;;;;;;;12.1;100.0;101460;;;;
2022/10/08 04:13:00;;;;;;;0.5;0.5;;;;;;;12.1;100.0;101460;;;;
2022/10/08 04:14:00;;;;;;;0.5;0.5;;;;;;;12.1;100.0;101460;;;;
2022/10/08 04:15:00;;;;;;;0.5;0.5;;;;;;;12.1;100.0;101460;;;;
2022/10/08 04:16:01;;;;;;;0.5;0.5;;;;;;;12.0;100.0;101460;;;;
2022/10/08 04:17:00;;;;;;;0.5;0.5;;;;;;;12.0;100.0;101460;;;;
2022/10/08 04:18:00;;;;;;;0.5;0.5;;;;;;;12.0;100.0;101470;;;;
2022/10/08 04:19:00;;;;;;;0.5;0.5;;;;;;;12.0;100.0;101470;;;;
2022/10/08 04:20:00;;;;;;;0.5;0.5;;;;;;;12.1;100.0;101470;;;;
2022/10/08 04:21:01;;;;;;;0.5;0.5;;;;;;;12.1;100.0;101470;;;;
2022/10/08 04:22:00;;;;;;;0.5;0.5;;;;;;;12.0;100.0;101460;;;;
2022/10/08 04:23:00;;;;;;;0.5;0.5;;;;;;;12.0;100.0;101460;;;;
2022/10/08 04:24:00;;;;;;;0.7;0.7;;;;;;;11.9;100.0;101470;;;;
2022/10/08 04:25:00;;;;;;;0.7;0.7;;;;;;;11.9;100.0;101470;;;;
2022/10/08 04:26:00;;;;;;;0.7;0.7;;;;;;;12.0;100.0;101470;;;;
2022/10/08 04:27:00;;;;;;;0.7;0.7;;;;;;;12.0;100.0;101470;;;;
2022/10/08 04:28:00;;;;;;;0.7;0.7;;;;;;;12.1;100.0;101460;;;;
2022/10/08 04:29:00;;;;;;;0.7;0.7;;;;;;;12.1;100.0;101460;;;;
2022/10/08 04:30:00;;;;;;;0.7;0.7;;;;;;;12.0;100.0;101460;;;;
2022/10/08 04:31:01;;;;;;;0.7;0.7;;;;;;;12.0;100.0;101460;;;;
2022/10/08 04:32:00;;;;;;;0.7;0.7;;;;;;;11.9;100.0;101470;;;;
2022/10/08 04:33:00;;;;;;;0.7;0.7;;;;;;;11.9;100.0;101470;;;;
2022/10/08 04:34:00;;;;;;;0.7;0.7;;;;;;;11.9;100.0;101470;;;;
2022/10/08 04:35:00;;;;;;;0.7;0.7;;;;;;;11.9;100.0;101470;;;;
2022/10/08 04:36:00;;;;;;;0.7;0.7;;;;;;;12.0;100.0;101470;;;;
2022/10/08 04:37:00;;;;;;;0.7;0.7;;;;;;;12.0;100.0;101470;;;;
2022/10/08 04:38:00;;;;;;;0.7;0.7;;;;;;;12.0;100.0;101470;;;;
2022/10/08 04:39:00;;;;;;;0.7;0.7;;;;;;;12.0;100.0;101470;;;;
2022/10/08 04:40:00;;;;;;;0.7;0.7;;;;;;;11.9;100.0;101480;;;;
2022/10/08 04:41:01;;;;;;;0.7;0.7;;;;;;;11.9;100.0;101480;;;;
2022/10/08 04:42:00;;;;;;;0.7;0.7;;;;;;;11.9;100.0;101480;;;;
2022/10/08 04:43:00;;;;;;;0.7;0.7;;;;;;;11.9;100.0;101480;;;;
2022/10/08 04:44:00;;;;;;;0.9;0.9;;;;;;;12.0;100.0;101470;;;;
2022/10/08 04:45:00;;;;;;;0.9;0.9;;;;;;;12.0;100.0;101470;;;;
2022/10/08 04:46:00;;;;;;;0.9;0.9;;;;;;;12.0;100.0;101480;;;;
2022/10/08 04:47:00;;;;;;;0.9;0.9;;;;;;;12.0;100.0;101480;;;;
2022/10/08 04:48:00;;;;;;;0.9;0.9;;;;;;;12.0;100.0;101480;;;;
2022/10/08 04:49:00;;;;;;;0.9;0.9;;;;;;;12.0;100.0;101480;;;;
2022/10/08 04:50:00;;;;;;;0.9;0.9;;;;;;;12.1;100.0;101490;;;;
2022/10/08 04:51:01;;;;;;;0.9;0.9;;;;;;;12.1;100.0;101490;;;;
2022/10/08 04:52:00;;;;;;;0.9;0.9;;;;;;;12.1;100.0;101490;;;;
2022/10/08 04:53:00;;;;;;;0.9;0.9;;;;;;;12.1;100.0;101490;;;;
2022/10/08 04:54:00;;;;;;;0.9;0.9;;;;;;;12.2;100.0;101490;;;;
2022/10/08 04:55:00;;;;;;;0.9;0.9;;;;;;;12.2;100.0;101490;;;;
2022/10/08 04:56:09;;;;;;;0.9;0.9;;;;;;;12.2;100.0;101490;;;;
2022/10/08 04:57:00;;;;;;;0.9;0.9;;;;;;;12.2;100.0;101490;;;;
2022/10/08 04:58:00;;;;;;;0.9;0.9;;;;;;;12.2;100.0;101500;;;;
2022/10/08 04:59:00;;;;;;;0.9;0.9;;;;;;;12.2;100.0;101500;;;;
2022/10/08 05:00:10;;;;;;;0.9;0.9;;;;;;;12.2;100.0;101490;;;;
2022/10/08 05:01:02;;;;;;;0.9;0.9;;;;;;;12.2;100.0;101490;;;;
2022/10/08 05:02:00;;;;;;;0.9;0.9;;;;;;;12.2;100.0;101490;;;;
2022/10/08 05:03:00;;;;;;;0.8;0.8;;;;;;;12.2;100.0;101490;;;;
2022/10/08 05:04:00;;;;;;;0.8;0.8;;;;;;;12.2;100.0;101500;;;;
2022/10/08 05:05:00;;;;;;;0.8;0.8;;;;;;;12.2;100.0;101500;;;;
2022/10/08 05:06:00;;;;;;;0.8;0.8;;;;;;;12.3;100.0;101500;;;;
2022/10/08 05:07:00;;;;;;;0.8;0.8;;;;;;;12.3;100.0;101500;;;;
2022/10/08 05:08:00;;;;;;;0.8;0.8;;;;;;;12.2;100.0;101510;;;;
2022/10/08 05:09:02;;;;;;;0.8;0.8;;;;;;;12.2;100.0;101510;;;;
2022/10/08 05:10:00;;;;;;;0.8;0.8;;;;;;;12.2;100.0;101510;;;;
2022/10/08 05:11:00;;;;;;;0.8;0.8;;;;;;;12.2;100.0;101510;;;;
2022/10/08 05:12:00;;;;;;;0.8;0.8;;;;;;;12.3;100.0;101510;;;;
2022/10/08 05:13:00;;;;;;;0.8;0.8;;;;;;;12.3;100.0;101510;;;;
2022/10/08 05:14:00;;;;;;;0.8;0.8;;;;;;;12.3;100.0;101510;;;;
2022/10/08 05:15:00;;;;;;;0.8;0.8;;;;;;;12.3;100.0;101510;;;;
2022/10/08 05:16:02;;;;;;;0.8;0.8;;;;;;;12.3;100.0;101510;;;;
2022/10/08 05:17:00;;;;;;;0.8;0.8;;;;;;;12.3;100.0;101510;;;;
2022/10/08 05:18:00;;;;;;;0.8;0.8;;;;;;;12.2;100.0;101520;;;;
2022/10/08 05:19:00;;;;;;;0.8;0.8;;;;;;;12.2;100.0;101520;;;;
2022/10/08 05:20:00;;;;;;;0.8;0.8;;;;;;;12.3;100.0;101520;;;;
2022/10/08 05:21:02;;;;;;;0.8;0.8;;;;;;;12.3;100.0;101520;;;;
2022/10/08 05:22:00;;;;;;;0.8;0.8;;;;;;;12.3;100.0;101520;;;;
2022/10/08 05:23:00;;;;;;;0.7;0.7;;;;;;;12.3;100.0;101520;;;;
2022/10/08 05:24:01;;;;;;;0.7;0.7;;;;;;;12.3;100.0;101520;;;;
2022/10/08 05:25:00;;;;;;;0.7;0.7;;;;;;;12.3;100.0;101520;;;;
2022/10/08 05:26:01;;;;;;;0.7;0.7;;;;;;;12.3;100.0;101520;;;;
2022/10/08 05:27:00;;;;;;;0.7;0.7;;;;;;;12.3;100.0;101520;;;;
2022/10/08 05:28:01;;;;;;;0.7;0.7;;;;;;;12.2;100.0;101520;;;;
2022/10/08 05:29:00;;;;;;;0.7;0.7;;;;;;;12.2;100.0;101520;;;;
2022/10/08 05:30:01;;;;;;;0.7;0.7;;;;;;;12.3;100.0;101530;;;;
2022/10/08 05:31:01;;;;;;;0.7;0.7;;;;;;;12.3;100.0;101530;;;;
2022/10/08 05:32:00;;;;;;;0.7;0.7;;;;;;;12.3;100.0;101530;;;;
2022/10/08 05:33:00;;;;;;;0.7;0.7;;;;;;;12.3;100.0;101530;;;;
2022/10/08 05:34:00;;;;;;;0.7;0.7;;;;;;;12.3;100.0;101530;;;;
2022/10/08 05:35:00;;;;;;;0.7;0.7;;;;;;;12.3;100.0;101530;;;;
2022/10/08 05:36:01;;;;;;;0.7;0.7;;;;;;;12.3;100.0;101530;;;;
2022/10/08 05:37:00;;;;;;;0.7;0.7;;;;;;;12.3;100.0;101530;;;;
2022/10/08 05:38:00;;;;;;;0.7;0.7;;;;;;;12.3;100.0;101530;;;;
2022/10/08 05:39:01;;;;;;;0.7;0.7;;;;;;;12.3;100.0;101530;;;;
2022/10/08 05:40:00;;;;;;;0.7;0.7;;;;;;;12.4;100.0;101540;;;;
2022/10/08 05:41:10;;;;;;;0.7;0.7;;;;;;;12.4;100.0;101540;;;;
2022/10/08 05:42:00;;;;;;;0.7;0.7;;;;;;;12.3;100.0;101540;;;;
2022/10/08 05:43:00;;;;;;;0.8;0.8;;;;;;;12.3;100.0;101540;;;;
2022/10/08 05:44:01;;;;;;;0.8;0.8;;;;;;;12.4;100.0;101540;;;;
2022/10/08 05:45:00;;;;;;;0.8;0.8;;;;;;;12.4;100.0;101540;;;;
2022/10/08 05:46:00;;;;;;;0.8;0.8;;;;;;;12.4;100.0;101540;;;;
2022/10/08 05:47:00;;;;;;;0.8;0.8;;;;;;;12.4;100.0;101540;;;;
2022/10/08 05:48:00;;;;;;;0.8;0.8;;;;;;;12.3;100.0;101550;;;;
2022/10/08 05:49:01;;;;;;;0.8;0.8;;;;;;;12.3;100.0;101550;;;;
2022/10/08 05:50:00;;;;;;;0.8;0.8;;;;;;;12.3;100.0;101550;;;;
2022/10/08 05:51:05;;;;;;;0.8;0.8;;;;;;;12.3;100.0;101550;;;;
2022/10/08 05:52:01;;;;;;;0.8;0.8;;;;;;;12.3;100.0;101550;;;;
2022/10/08 05:53:00;;;;;;;0.8;0.8;;;;;;;12.3;100.0;101550;;;;
2022/10/08 05:54:00;;;;;;;0.8;0.8;;;;;;;12.2;100.0;101550;;;;
2022/10/08 05:55:00;;;;;;;0.8;0.8;;;;;;;12.2;100.0;101550;;;;
2022/10/08 05:56:01;;;;;;;0.8;0.8;;;;;;;12.3;100.0;101560;;;;
2022/10/08 05:57:00;;;;;;;0.8;0.8;;;;;;;12.3;100.0;101560;;;;
2022/10/08 05:58:00;;;;;;;0.8;0.8;;;;;;;12.2;100.0;101560;;;;
2022/10/08 05:59:00;;;;;;;0.8;0.8;;;;;;;12.2;100.0;101560;;;;
2022/10/08 06:00:00;;;;;;;0.8;0.8;;;;;;;12.2;100.0;101560;;;;
2022/10/08 06:01:01;;;;;;;0.8;0.8;;;;;;;12.2;100.0;101560;;;;
2022/10/08 06:02:00;;;;;;;0.8;0.8;;;;;;;12.2;100.0;101570;;;;
2022/10/08 06:03:00;;;;;;;0.7;0.7;;;;;;;12.2;100.0;101570;;;;
2022/10/08 06:04:08;;;;;;;0.7;0.7;;;;;;;12.3;100.0;101570;;;;
2022/10/08 06:05:00;;;;;;;0.7;0.7;;;;;;;12.3;100.0;101570;;;;
2022/10/08 06:06:01;;;;;;;0.7;0.7;;;;;;;12.3;100.0;101570;;;;
2022/10/08 06:07:00;;;;;;;0.7;0.7;;;;;;;12.3;100.0;101570;;;;
2022/10/08 06:08:00;;;;;;;0.7;0.7;;;;;;;12.1;100.0;101580;;;;
2022/10/08 06:09:00;;;;;;;0.7;0.7;;;;;;;12.1;100.0;101580;;;;
2022/10/08 06:10:00;;;;;;;0.7;0.7;;;;;;;12.2;100.0;101580;;;;
2022/10/08 06:11:00;;;;;;;0.7;0.7;;;;;;;12.2;100.0;101580;;;;
2022/10/08 06:12:00;;;;;;;0.7;0.7;;;;;;;12.2;100.0;101580;;;;
2022/10/08 06:13:00;;;;;;;0.7;0.7;;;;;;;12.2;100.0;101580;;;;
2022/10/08 06:14:00;;;;;;;0.7;0.7;;;;;;;12.3;100.0;101590;;;;
2022/10/08 06:15:00;;;;;;;0.7;0.7;;;;;;;12.3;100.0;101590;;;;
2022/10/08 06:16:05;;;;;;;0.7;0.7;;;;;;;12.2;100.0;101590;;;;
2022/10/08 06:17:00;;;;;;;0.7;0.7;;;;;;;12.2;100.0;101590;;;;
2022/10/08 06:18:01;;;;;;;0.7;0.7;;;;;;;12.1;100.0;101590;;;;
2022/10/08 06:19:01;;;;;;;0.7;0.7;;;;;;;12.1;100.0;101590;;;;
2022/10/08 06:20:00;;;;;;;0.7;0.7;;;;;;;12.1;100.0;101600;;;;
2022/10/08 06:21:01;;;;;;;0.7;0.7;;;;;;;12.1;100.0;101600;;;;
2022/10/08 06:22:00;;;;;;;0.7;0.7;;;;;;;12.1;100.0;101590;;;;
2022/10/08 06:23:00;;;;;;;0.9;0.9;;;;;;;12.1;100.0;101590;;;;
2022/10/08 06:24:01;;;;;;;0.9;0.9;;;;;;;12.1;100.0;101600;;;;